createdAt,value
2022-07-27T00:01:21.046Z,102143.88
2022-07-27T00:03:50.803Z,102145.03
2022-07-27T00:06:18.988Z,102147.06
2022-07-27T00:08:47.189Z,102152.88
2022-07-27T00:11:16.032Z,102152.06
2022-07-27T00:13:45.321Z,102152.06
2022-07-27T00:16:13.737Z,102152.22
2022-07-27T00:18:42.247Z,102154.22
2022-07-27T00:21:11.856Z,102141.09
2022-07-27T00:23:40.867Z,102138.44
2022-07-27T00:26:09.102Z,102137.78
2022-07-27T00:28:37.265Z,102133.28
2022-07-27T00:31:05.508Z,102125.47
2022-07-27T00:33:33.797Z,102116.66
2022-07-27T00:36:03.007Z,102123.16
2022-07-27T00:38:32.614Z,102123.34
2022-07-27T00:41:01.048Z,102122.31
2022-07-27T00:43:29.259Z,102112.69
2022-07-27T00:45:57.633Z,102116.38
2022-07-27T00:48:26.554Z,102118.34
2022-07-27T00:50:57.939Z,102120.34
2022-07-27T00:53:26.238Z,102109.91
2022-07-27T00:55:55.814Z,102110.88
2022-07-27T00:58:24.651Z,102113.72
2022-07-27T01:00:53.173Z,102105.75
2022-07-27T01:03:23.220Z,102101.44
2022-07-27T01:05:58.569Z,102102.44
2022-07-27T01:08:27.003Z,102098.28
2022-07-27T01:10:57.572Z,102093.13
2022-07-27T01:13:27.150Z,102090.16
2022-07-27T01:15:56.576Z,102083.19
2022-07-27T01:18:30.207Z,102085.84
2022-07-27T01:20:59.400Z,102090.31
2022-07-27T01:23:32.570Z,102085.19
2022-07-27T01:26:01.055Z,102069.22
2022-07-27T01:28:29.619Z,102076.56
2022-07-27T01:30:57.920Z,102081.19
2022-07-27T01:33:27.036Z,102072.41
2022-07-27T01:35:56.590Z,102075.25
2022-07-27T01:38:25.130Z,102079.88
2022-07-27T01:40:55.998Z,102075.38
2022-07-27T01:43:24.663Z,102070.44
2022-07-27T01:45:53.016Z,102070.75
2022-07-27T01:48:22.304Z,102070.94
2022-07-27T01:50:51.289Z,102068.63
2022-07-27T01:53:19.653Z,102072.28
2022-07-27T01:55:47.806Z,102070.63
2022-07-27T01:58:18.041Z,102061.00
2022-07-27T02:00:47.024Z,102067.28
2022-07-27T02:03:15.665Z,102059.69
2022-07-27T02:05:43.910Z,102070.31
2022-07-27T02:08:12.195Z,102064.31
2022-07-27T02:11:01.180Z,102059.00
2022-07-27T02:13:29.836Z,102063.66
2022-07-27T02:15:58.188Z,102056.19
2022-07-27T02:18:33.506Z,102066.66
2022-07-27T02:21:06.209Z,102060.69
2022-07-27T02:23:35.104Z,102062.53
2022-07-27T02:26:03.454Z,102065.50
2022-07-27T02:28:33.219Z,102056.53
2022-07-27T02:31:01.473Z,102054.34
2022-07-27T02:33:30.035Z,102057.34
2022-07-27T02:35:58.540Z,102044.72
2022-07-27T02:38:27.087Z,102052.03
2022-07-27T02:40:55.277Z,102046.72
2022-07-27T02:43:23.844Z,102040.41
2022-07-27T02:45:53.529Z,102036.75
2022-07-27T02:48:21.933Z,102035.28
2022-07-27T02:50:50.119Z,102034.59
2022-07-27T02:53:18.617Z,102034.78
2022-07-27T02:55:46.936Z,102029.78
2022-07-27T02:58:15.090Z,102032.31
2022-07-27T03:00:43.440Z,102034.13
2022-07-27T03:03:12.920Z,102029.16
2022-07-27T03:05:41.311Z,102029.16
2022-07-27T03:08:09.705Z,102024.84
2022-07-27T03:10:38.141Z,102029.47
2022-07-27T03:13:06.498Z,102025.16
2022-07-27T03:15:35.466Z,102026.50
2022-07-27T03:18:04.219Z,102035.28
2022-07-27T03:20:34.090Z,102031.16
2022-07-27T03:23:02.231Z,102028.50
2022-07-27T03:25:30.562Z,102025.16
2022-07-27T03:28:03.849Z,102020.84
2022-07-27T03:30:32.790Z,102018.53
2022-07-27T03:33:01.128Z,102025.84
2022-07-27T03:35:29.643Z,102020.72
2022-07-27T03:37:59.373Z,102016.53
2022-07-27T03:40:29.662Z,102023.19
2022-07-27T03:42:58.113Z,102022.84
2022-07-27T03:45:26.558Z,102027.50
2022-07-27T03:47:54.785Z,102034.66
2022-07-27T03:50:23.716Z,102026.00
2022-07-27T03:52:52.260Z,102028.84
2022-07-27T03:55:22.349Z,102022.84
2022-07-27T03:57:51.012Z,102026.50
2022-07-27T04:00:19.709Z,102021.69
2022-07-27T04:02:48.250Z,102021.69
2022-07-27T04:05:16.887Z,102012.25
2022-07-27T04:07:45.094Z,102014.06
2022-07-27T04:10:14.110Z,102011.25
2022-07-27T04:12:43.855Z,102013.56
2022-07-27T04:15:14.922Z,102013.91
2022-07-27T04:17:54.018Z,102006.94
2022-07-27T04:20:25.857Z,102001.28
2022-07-27T04:22:54.180Z,101995.31
2022-07-27T04:25:22.693Z,102000.94
2022-07-27T04:27:54.749Z,102001.13
2022-07-27T04:30:23.558Z,102003.09
2022-07-27T04:32:51.921Z,101999.63
2022-07-27T04:35:26.108Z,102004.78
2022-07-27T04:37:58.593Z,102012.25
2022-07-27T04:40:32.430Z,102005.75
2022-07-27T04:43:03.079Z,102005.44
2022-07-27T04:45:31.938Z,102001.28
2022-07-27T04:48:00.486Z,102005.94
2022-07-27T04:50:28.765Z,101991.84
2022-07-27T04:52:56.934Z,102003.75
2022-07-27T04:55:25.733Z,102002.28
2022-07-27T04:57:54.060Z,102003.09
2022-07-27T05:00:23.743Z,102002.91
2022-07-27T05:02:51.896Z,101998.44
2022-07-27T05:05:20.155Z,102004.91
2022-07-27T05:07:48.349Z,102005.38
2022-07-27T05:10:20.154Z,102010.69
2022-07-27T05:12:49.204Z,102010.69
2022-07-27T05:15:17.654Z,102009.69
2022-07-27T05:17:47.482Z,102017.53
2022-07-27T05:20:16.126Z,102014.84
2022-07-27T05:22:44.315Z,102010.38
2022-07-27T05:25:12.955Z,102025.31
2022-07-27T05:27:53.822Z,102011.53
2022-07-27T05:30:25.556Z,102009.19
2022-07-27T05:32:55.375Z,102011.22
2022-07-27T05:35:24.290Z,102014.00
2022-07-27T05:37:52.459Z,102009.34
2022-07-27T05:40:20.886Z,102013.31
2022-07-27T05:42:49.195Z,102011.97
2022-07-27T05:45:17.455Z,102007.16
2022-07-27T05:47:45.811Z,102003.16
2022-07-27T05:50:15.878Z,102013.41
2022-07-27T05:52:44.540Z,102011.44
2022-07-27T05:55:13.201Z,102009.28
2022-07-27T05:57:42.204Z,102007.91
2022-07-27T06:00:12.492Z,102012.69
2022-07-27T06:02:41.035Z,102013.00
2022-07-27T06:05:15.264Z,102011.03
2022-07-27T06:07:59.959Z,102004.50
2022-07-27T06:10:29.967Z,102005.19
2022-07-27T06:12:58.459Z,101999.88
2022-07-27T06:15:26.751Z,102009.50
2022-07-27T06:17:55.135Z,101997.31
2022-07-27T06:20:24.523Z,102005.50
2022-07-27T06:22:56.316Z,102011.44
2022-07-27T06:25:34.515Z,102010.28
2022-07-27T06:28:04.482Z,102003.97
2022-07-27T06:30:33.208Z,102003.63
2022-07-27T06:33:01.521Z,102001.25
2022-07-27T06:35:29.843Z,102005.88
2022-07-27T06:38:00.531Z,102003.50
2022-07-27T06:40:29.913Z,101996.19
2022-07-27T06:42:58.686Z,101992.81
2022-07-27T06:45:27.158Z,101989.09
2022-07-27T06:47:55.286Z,101993.72
2022-07-27T06:50:24.130Z,101993.03
2022-07-27T06:52:52.603Z,101988.31
2022-07-27T06:55:22.170Z,101986.41
2022-07-27T06:57:50.361Z,101996.63
2022-07-27T07:00:18.809Z,101992.41
2022-07-27T07:02:54.693Z,101991.31
2022-07-27T07:05:24.145Z,101989.06
2022-07-27T07:07:53.099Z,101989.13
2022-07-27T07:10:23.807Z,101996.50
2022-07-27T07:12:56.077Z,101990.25
2022-07-27T07:15:25.449Z,101977.19
2022-07-27T07:17:54.446Z,101982.72
2022-07-27T07:20:23.615Z,101976.47
2022-07-27T07:22:52.286Z,101977.31
2022-07-27T07:25:20.512Z,101971.22
2022-07-27T07:27:51.082Z,101972.44
2022-07-27T07:30:19.381Z,101977.28
2022-07-27T07:32:47.944Z,101967.28
2022-07-27T07:35:16.458Z,101971.31
2022-07-27T07:37:44.812Z,101973.16
2022-07-27T07:40:41.902Z,101978.09
2022-07-27T07:43:09.030Z,101972.25
2022-07-27T07:45:51.017Z,101975.09
2022-07-27T07:48:21.496Z,101977.41
2022-07-27T07:50:51.932Z,101977.78
2022-07-27T07:53:21.432Z,101978.06
2022-07-27T07:55:49.690Z,101979.59
2022-07-27T07:58:19.265Z,101980.06
2022-07-27T08:00:47.887Z,101970.19
2022-07-27T08:03:17.874Z,101977.47
2022-07-27T08:05:46.317Z,101985.09
2022-07-27T08:08:14.719Z,101974.97
2022-07-27T08:10:43.090Z,101971.34
2022-07-27T08:13:11.385Z,101975.59
2022-07-27T08:15:41.371Z,101980.72
2022-07-27T08:18:10.110Z,101985.50
2022-07-27T08:20:38.402Z,101982.09
2022-07-27T08:23:06.795Z,101985.41
2022-07-27T08:25:34.993Z,101987.88
2022-07-27T08:28:03.522Z,101984.63
2022-07-27T08:30:33.612Z,101979.84
2022-07-27T08:33:05.359Z,101982.00
2022-07-27T08:35:34.119Z,101975.38
2022-07-27T08:38:03.665Z,101974.19
2022-07-27T08:40:41.839Z,101982.81
2022-07-27T08:43:11.954Z,101981.53
2022-07-27T08:45:44.362Z,101982.44
2022-07-27T08:48:15.660Z,101989.34
2022-07-27T08:50:44.421Z,101992.06
2022-07-27T08:53:14.453Z,101993.19
2022-07-27T08:55:44.817Z,101989.75
2022-07-27T08:58:14.672Z,101986.38
2022-07-27T09:00:44.476Z,101985.09
2022-07-27T09:03:19.811Z,101991.81
2022-07-27T09:05:51.912Z,101993.66
2022-07-27T09:08:24.594Z,101985.41
2022-07-27T09:10:54.714Z,101987.03
2022-07-27T09:13:27.718Z,101989.47
2022-07-27T09:16:18.498Z,101985.34
2022-07-27T09:18:48.388Z,101984.69
2022-07-27T09:21:18.743Z,101986.31
2022-07-27T09:23:48.944Z,101989.69
2022-07-27T09:26:35.098Z,101986.19
2022-07-27T09:29:05.591Z,101983.91
2022-07-27T09:31:41.897Z,101987.41
2022-07-27T09:34:12.495Z,101993.50
2022-07-27T09:36:54.316Z,101990.91
2022-07-27T09:39:23.958Z,101983.72
2022-07-27T09:41:55.326Z,101998.91
2022-07-27T09:44:43.787Z,101983.66
2022-07-27T09:47:26.938Z,101977.50
2022-07-27T09:49:58.775Z,101978.84
2022-07-27T09:52:27.534Z,101968.66
2022-07-27T09:54:56.782Z,101968.16
2022-07-27T09:57:25.119Z,101964.00
2022-07-27T10:00:10.228Z,101966.91
2022-07-27T10:02:38.853Z,101968.47
2022-07-27T10:05:09.329Z,101966.22
2022-07-27T10:07:37.811Z,101959.69
2022-07-27T10:10:07.246Z,101970.50
2022-07-27T10:12:36.345Z,101963.06
2022-07-27T10:15:05.221Z,101966.75
2022-07-27T10:17:33.717Z,101969.09
2022-07-27T10:20:05.845Z,101967.16
2022-07-27T10:22:57.037Z,101962.94
2022-07-27T10:25:26.943Z,101963.22
2022-07-27T10:28:12.987Z,101969.28
2022-07-27T10:30:41.469Z,101958.59
2022-07-27T10:33:17.436Z,101959.38
2022-07-27T10:35:45.665Z,101957.34
2022-07-27T10:38:18.487Z,101957.19
2022-07-27T10:40:47.541Z,101963.56
2022-07-27T10:43:20.606Z,101964.75
2022-07-27T10:46:01.670Z,101961.41
2022-07-27T10:48:39.669Z,101957.97
2022-07-27T10:51:11.947Z,101955.88
2022-07-27T10:54:11.075Z,101961.38
2022-07-27T10:56:47.114Z,101953.84
2022-07-27T10:59:15.876Z,101962.38
2022-07-27T11:01:58.717Z,101959.66
2022-07-27T11:04:27.524Z,101962.13
2022-07-27T11:07:24.073Z,101958.75
2022-07-27T11:10:06.083Z,101962.34
2022-07-27T11:12:36.861Z,101958.88
2022-07-27T11:15:05.968Z,101965.69
2022-07-27T11:20:24.086Z,101959.47
2022-07-27T11:25:42.333Z,101961.56
2022-07-27T11:28:10.617Z,101965.53
2022-07-27T11:30:38.968Z,101960.00
2022-07-27T11:33:08.204Z,101955.28
2022-07-27T11:35:36.565Z,101959.59
2022-07-27T11:38:06.816Z,101960.03
2022-07-27T11:40:56.774Z,101954.09
2022-07-27T11:43:37.114Z,101956.41
2022-07-27T11:46:17.555Z,101949.44
2022-07-27T11:49:05.992Z,101946.09
2022-07-27T11:51:37.559Z,101947.13
2022-07-27T11:54:07.815Z,101946.22
2022-07-27T11:56:39.907Z,101948.72
2022-07-27T11:59:14.194Z,101958.78
2022-07-27T12:01:47.127Z,101948.97
2022-07-27T12:04:18.991Z,101955.78
2022-07-27T12:06:49.902Z,101953.69
2022-07-27T12:09:19.297Z,101951.47
2022-07-27T12:11:56.028Z,101951.50
2022-07-27T12:14:31.104Z,101949.31
2022-07-27T12:17:20.044Z,101948.50
2022-07-27T12:19:53.791Z,101949.91
2022-07-27T12:22:27.921Z,101944.41
2022-07-27T12:24:57.306Z,101950.38
2022-07-27T12:27:27.560Z,101951.41
2022-07-27T12:30:09.604Z,101949.34
2022-07-27T12:32:40.057Z,101952.19
2022-07-27T12:35:22.598Z,101946.78
2022-07-27T12:37:58.718Z,101944.94
2022-07-27T12:40:27.630Z,101944.28
2022-07-27T12:43:03.308Z,101941.44
2022-07-27T12:45:33.986Z,101938.50
2022-07-27T12:48:13.051Z,101935.19
2022-07-27T12:50:43.343Z,101928.63
2022-07-27T12:53:13.500Z,101923.69
2022-07-27T12:55:42.928Z,101926.38
2022-07-27T12:58:14.375Z,101920.41
2022-07-27T13:00:42.548Z,101924.06
2022-07-27T13:03:11.011Z,101917.84
2022-07-27T13:05:39.234Z,101920.69
2022-07-27T13:08:08.406Z,101920.47
2022-07-27T13:10:37.726Z,101913.63
2022-07-27T13:13:06.080Z,101916.25
2022-07-27T13:15:36.320Z,101912.31
2022-07-27T13:18:04.684Z,101915.81
2022-07-27T13:20:33.125Z,101923.41
2022-07-27T13:23:01.493Z,101914.13
2022-07-27T13:25:29.754Z,101914.75
2022-07-27T13:27:57.944Z,101910.66
2022-07-27T13:30:26.874Z,101912.28
2022-07-27T13:32:56.523Z,101905.19
2022-07-27T13:35:24.784Z,101915.38
2022-07-27T13:37:53.114Z,101909.22
2022-07-27T13:40:22.067Z,101914.59
2022-07-27T13:42:50.445Z,101915.84
2022-07-27T13:45:18.765Z,101912.13
2022-07-27T13:47:46.996Z,101914.59
2022-07-27T13:50:19.766Z,101909.00
2022-07-27T13:52:49.095Z,101907.59
2022-07-27T13:55:18.572Z,101908.41
2022-07-27T13:57:47.880Z,101899.38
2022-07-27T14:00:17.162Z,101904.72
2022-07-27T14:02:46.201Z,101893.22
2022-07-27T14:05:18.429Z,101891.56
2022-07-27T14:07:48.842Z,101881.91
2022-07-27T14:10:42.029Z,101891.00
2022-07-27T14:13:13.138Z,101893.41
2022-07-27T14:15:53.209Z,101886.19
2022-07-27T14:18:27.603Z,101882.44
2022-07-27T14:20:59.438Z,101887.34
2022-07-27T14:23:29.534Z,101880.69
2022-07-27T14:25:59.970Z,101879.47
2022-07-27T14:28:29.878Z,101883.56
2022-07-27T14:30:58.552Z,101882.31
2022-07-27T14:33:36.627Z,101881.50
2022-07-27T14:36:08.206Z,101879.84
2022-07-27T14:38:37.436Z,101880.00
2022-07-27T14:41:06.491Z,101877.31
2022-07-27T14:43:34.953Z,101880.13
2022-07-27T14:46:03.217Z,101878.06
2022-07-27T14:49:04.107Z,101877.63
2022-07-27T14:51:20.959Z,101872.09
2022-07-27T14:53:49.191Z,101874.78
2022-07-27T14:56:17.699Z,101875.16
2022-07-27T14:58:46.249Z,101871.06
2022-07-27T15:01:16.991Z,101874.34
2022-07-27T15:03:46.345Z,101877.09
2022-07-27T15:06:14.600Z,101880.78
2022-07-27T15:08:44.383Z,101872.34
2022-07-27T15:11:12.674Z,101875.03
2022-07-27T15:13:41.169Z,101883.63
2022-07-27T15:16:09.736Z,101877.63
2022-07-27T15:18:39.173Z,101881.75
2022-07-27T15:21:13.195Z,101878.38
2022-07-27T15:23:44.790Z,101878.13
2022-07-27T15:26:14.257Z,101868.44
2022-07-27T15:28:42.943Z,101862.34
2022-07-27T15:31:11.464Z,101857.84
2022-07-27T15:33:40.225Z,101861.56
2022-07-27T15:36:08.622Z,101860.53
2022-07-27T15:38:36.869Z,101851.34
2022-07-27T15:41:06.555Z,101849.94
2022-07-27T15:43:35.456Z,101857.59
2022-07-27T15:46:03.578Z,101854.94
2022-07-27T15:48:31.991Z,101847.34
2022-07-27T15:51:00.272Z,101854.09
2022-07-27T15:53:30.060Z,101845.56
2022-07-27T15:55:58.225Z,101840.03
2022-07-27T15:58:27.961Z,101835.28
2022-07-27T16:00:58.293Z,101836.50
2022-07-27T16:03:27.440Z,101836.94
2022-07-27T16:05:56.884Z,101835.53
2022-07-27T16:08:27.340Z,101828.13
2022-07-27T16:10:55.594Z,101825.06
2022-07-27T16:13:23.907Z,101824.84
2022-07-27T16:16:11.302Z,101823.44
2022-07-27T16:18:39.839Z,101817.22
2022-07-27T16:21:08.396Z,101814.75
2022-07-27T16:23:36.617Z,101822.31
2022-07-27T16:26:06.482Z,101817.78
2022-07-27T16:28:39.121Z,101815.03
2022-07-27T16:31:11.514Z,101809.47
2022-07-27T16:33:40.850Z,101813.97
2022-07-27T16:36:09.805Z,101809.34
2022-07-27T16:38:38.362Z,101815.28
2022-07-27T16:41:17.436Z,101812.81
2022-07-27T16:43:45.822Z,101806.03
2022-07-27T16:46:15.448Z,101809.03
2022-07-27T16:48:43.950Z,101806.53
2022-07-27T16:51:14.680Z,101800.13
2022-07-27T16:53:44.551Z,101798.53
2022-07-27T16:56:13.401Z,101805.13
2022-07-27T16:58:41.809Z,101797.38
2022-07-27T17:01:10.291Z,101805.22
2022-07-27T17:03:51.508Z,101797.56
2022-07-27T17:06:21.054Z,101800.00
2022-07-27T17:08:49.284Z,101804.06
2022-07-27T17:11:21.633Z,101802.81
2022-07-27T17:13:51.118Z,101804.28
2022-07-27T17:16:28.122Z,101804.00
2022-07-27T17:18:58.038Z,101803.63
2022-07-27T17:21:26.251Z,101803.00
2022-07-27T17:23:54.902Z,101795.72
2022-07-27T17:26:25.145Z,101794.53
2022-07-27T17:28:54.081Z,101787.97
2022-07-27T17:31:22.718Z,101791.50
2022-07-27T17:33:51.788Z,101789.84
2022-07-27T17:36:21.988Z,101784.72
2022-07-27T17:38:51.251Z,101769.94
2022-07-27T17:41:24.520Z,101762.78
2022-07-27T17:43:54.295Z,101774.28
2022-07-27T17:46:23.211Z,101762.78
2022-07-27T17:48:52.970Z,101763.41
2022-07-27T17:51:25.403Z,101766.06
2022-07-27T17:53:53.957Z,101761.75
2022-07-27T17:56:22.198Z,101765.81
2022-07-27T17:58:51.351Z,101761.13
2022-07-27T18:01:47.287Z,101765.44
2022-07-27T18:04:08.071Z,101773.25
2022-07-27T18:06:37.863Z,101767.09
2022-07-27T18:09:07.175Z,101768.69
2022-07-27T18:11:35.494Z,101772.53
2022-07-27T18:14:03.790Z,101759.84
2022-07-27T18:16:38.063Z,101771.47
2022-07-27T18:19:08.563Z,101767.31
2022-07-27T18:21:38.425Z,101769.34
2022-07-27T18:24:07.071Z,101763.59
2022-07-27T18:26:38.727Z,101760.94
2022-07-27T18:29:07.572Z,101765.00
2022-07-27T18:31:36.075Z,101769.25
2022-07-27T18:34:07.929Z,101763.31
2022-07-27T18:36:42.635Z,101763.47
2022-07-27T18:39:11.206Z,101762.28
2022-07-27T18:41:40.777Z,101753.59
2022-07-27T18:44:09.617Z,101760.38
2022-07-27T18:46:38.083Z,101753.59
2022-07-27T18:49:06.540Z,101754.84
2022-07-27T18:51:37.225Z,101749.53
2022-07-27T18:54:07.029Z,101754.84
2022-07-27T18:56:35.159Z,101745.22
2022-07-27T18:59:03.526Z,101747.22
2022-07-27T19:01:32.212Z,101741.66
2022-07-27T19:04:00.517Z,101748.56
2022-07-27T19:06:31.007Z,101746.03
2022-07-27T19:08:59.161Z,101746.22
2022-07-27T19:11:28.846Z,101739.25
2022-07-27T19:13:58.053Z,101743.56
2022-07-27T19:16:27.101Z,101737.41
2022-07-27T19:18:55.427Z,101740.41
2022-07-27T19:21:24.264Z,101732.81
2022-07-27T19:23:52.657Z,101743.03
2022-07-27T19:26:21.013Z,101738.88
2022-07-27T19:28:50.651Z,101734.94
2022-07-27T19:31:23.287Z,101740.03
2022-07-27T19:33:52.436Z,101741.25
2022-07-27T19:36:20.830Z,101743.25
2022-07-27T19:38:49.129Z,101749.41
2022-07-27T19:41:17.857Z,101742.44
2022-07-27T19:43:46.090Z,101744.22
2022-07-27T19:46:15.931Z,101740.06
2022-07-27T19:48:45.609Z,101737.41
2022-07-27T19:51:16.037Z,101741.91
2022-07-27T19:53:44.458Z,101731.81
2022-07-27T19:56:12.805Z,101736.88
2022-07-27T19:58:41.145Z,101744.25
2022-07-27T20:01:10.386Z,101746.91
2022-07-27T20:03:48.695Z,101741.59
2022-07-27T20:06:22.553Z,101736.81
2022-07-27T20:08:50.944Z,101739.50
2022-07-27T20:11:19.398Z,101740.47
2022-07-27T20:13:47.722Z,101745.81
2022-07-27T20:16:17.895Z,101731.03
2022-07-27T20:18:47.706Z,101724.88
2022-07-27T20:21:23.131Z,101728.75
2022-07-27T20:23:52.290Z,101729.56
2022-07-27T20:26:20.801Z,101720.38
2022-07-27T20:28:50.325Z,101731.88
2022-07-27T20:31:18.879Z,101727.34
2022-07-27T20:33:48.738Z,101725.44
2022-07-27T20:36:17.013Z,101729.22
2022-07-27T20:38:45.256Z,101726.56
2022-07-27T20:41:13.496Z,101722.88
2022-07-27T20:43:41.748Z,101720.22
2022-07-27T20:46:10.154Z,101727.75
2022-07-27T20:48:39.537Z,101718.31
2022-07-27T20:51:09.177Z,101720.78
2022-07-27T20:53:37.410Z,101729.59
2022-07-27T20:56:06.206Z,101721.59
2022-07-27T20:58:34.855Z,101711.97
2022-07-27T21:01:03.444Z,101721.81
2022-07-27T21:03:32.401Z,101721.13
2022-07-27T21:06:00.717Z,101725.19
2022-07-27T21:08:30.519Z,101723.09
2022-07-27T21:10:58.796Z,101722.44
2022-07-27T21:13:27.048Z,101723.47
2022-07-27T21:15:55.261Z,101725.47
2022-07-27T21:18:23.525Z,101722.19
2022-07-27T21:20:51.748Z,101714.19
2022-07-27T21:23:37.123Z,101715.84
2022-07-27T21:26:06.655Z,101712.16
2022-07-27T21:28:35.870Z,101710.50
2022-07-27T21:31:04.797Z,101713.19
2022-07-27T21:33:39.166Z,101715.84
2022-07-27T21:36:08.690Z,101716.66
2022-07-27T21:38:36.951Z,101715.38
2022-07-27T21:41:07.104Z,101714.38
2022-07-27T21:43:35.586Z,101712.56
2022-07-27T21:46:04.119Z,101716.22
2022-07-27T21:48:32.822Z,101715.22
2022-07-27T21:51:01.170Z,101712.56
2022-07-27T21:53:29.463Z,101712.56
2022-07-27T21:55:58.243Z,101718.59
2022-07-27T21:58:28.225Z,101714.56
2022-07-27T22:00:56.509Z,101714.56
2022-07-27T22:03:24.870Z,101717.06
2022-07-27T22:05:53.111Z,101711.88
2022-07-27T22:08:22.613Z,101716.22
2022-07-27T22:10:50.848Z,101714.94
2022-07-27T22:13:19.242Z,101722.94
2022-07-27T22:15:49.811Z,101717.59
2022-07-27T22:18:18.468Z,101708.59
2022-07-27T22:20:46.710Z,101715.31
2022-07-27T22:23:14.997Z,101709.97
2022-07-27T22:25:43.800Z,101709.16
2022-07-27T22:28:12.316Z,101707.63
2022-07-27T22:30:41.489Z,101710.31
2022-07-27T22:33:11.037Z,101708.66
2022-07-27T22:35:39.191Z,101702.06
2022-07-27T22:38:07.725Z,101706.19
2022-07-27T22:40:35.854Z,101705.38
2022-07-27T22:43:04.114Z,101710.03
2022-07-27T22:45:32.390Z,101704.72
2022-07-27T22:48:00.583Z,101701.69
2022-07-27T22:50:30.146Z,101698.00
2022-07-27T22:52:58.607Z,101698.22
2022-07-27T22:55:27.346Z,101698.00
2022-07-27T22:57:55.571Z,101691.88
2022-07-27T23:00:23.970Z,101683.69
2022-07-27T23:02:52.224Z,101690.84
2022-07-27T23:05:20.559Z,101688.19
2022-07-27T23:07:50.549Z,101690.03
2022-07-27T23:10:36.264Z,101682.88
2022-07-27T23:13:04.578Z,101680.59
2022-07-27T23:15:32.766Z,101679.59
2022-07-27T23:18:00.900Z,101679.38
2022-07-27T23:20:29.206Z,101678.56
2022-07-27T23:22:58.814Z,101672.22
2022-07-27T23:25:34.960Z,101671.41
2022-07-27T23:28:05.081Z,101669.94
2022-07-27T23:30:33.496Z,101672.41
2022-07-27T23:33:01.743Z,101659.94
2022-07-27T23:35:30.278Z,101658.28
2022-07-27T23:38:00.031Z,101666.47
2022-07-27T23:40:28.636Z,101656.19
2022-07-27T23:42:57.012Z,101652.88
2022-07-27T23:45:25.247Z,101652.88
2022-07-27T23:47:53.544Z,101649.22
2022-07-27T23:50:22.158Z,101657.00
2022-07-27T23:52:50.711Z,101652.50
2022-07-27T23:55:20.351Z,101657.84
2022-07-27T23:57:48.619Z,101659.47
